Nickolas Zukowsky

Human Powered Health

Nickolas Zukowsky is a cyclist from Canada (born June 3rd 1998), who currently rides for Human Powered Health (UCI ProTeam).

Information

2022 2021 2020 2019 2018 2017 2016

Human Powered Health (ProTeam) UCI Ranking: 295 (253pts) UCI: Race days: 60 UCI: Distance: 10.283km
Date Pos GC Race UCI
15.05 74 Tro-Bro Leon | 1.Pro 2022-05-15Show more
04.06 15 Heistse Pijl | 1.1 2022-06-045Show more
06.06 80 Ronde van Limburg | 1.1 2022-06-06Show more
29.05 Tour of Norway | 2.Pro 2022-05-29 Show more
29.05 65 Tour of Norway | Overall 2022-05-29
12.06 ZLM Tour | 2.Pro 2022-06-12 Show more
12.06 50 ZLM Tour | Overall 2022-06-12
23.06 DNS Canada ITT | CN 2022-06-23Show more
26.06 6 Canada RR | CN 2022-06-2630Show more
31.07 21 Circuito de Getxo | 1.1 2022-07-313Show more
28.07 Vuelta a Castilla y León | 2.1 2022-07-28 Show more
28.07 12 Vuelta a Castilla y León | Overall 2022-07-2810
07.08 SAZKA Tour | 2.1 2022-08-07 Show more
07.08 22 SAZKA Tour | Overall 2022-08-073
24.08 26 Druivenkoers Overijse | 1.1 2022-08-24Show more
04.09 2 Maryland Cycling Classic | 1.Pro 2022-09-04150Show more
20.08 PostNord Danmark Rundt | 2.Pro 2022-08-20 Show more
20.08 16 PostNord Danmark Rundt | Overall 2022-08-205
25.09 36 World Championship RR | WCRR 2022-09-2510Show more
17.09 Okolo Slovenska | 2.1 2022-09-17 Show more
17.09 41 Okolo Slovenska | Overall 2022-09-17
02.10 27 Famenne Ardenne Classic | 1.1 2022-10-02Show more
09.10 62 Mem. Van Steenbergen | 1.1 2022-10-09Show more
17.04 Tour of Türkiye | 2.Pro 2022-04-17 Show more
17.04 65 Tour of Türkiye | Overall 2022-04-17
13.02 Tour of Antalya | 2.1 2022-02-13 Show more
13.02 23 Tour of Antalya | Overall 2022-02-133
27.02 35 Kuurne-Brussel-Kuurne | 1.Pro 2022-02-273Show more
01.03 25 Le Samyn | 1.1 2022-03-013Show more
20.02 Volta ao Algarve | 2.Pro 2022-02-20 Show more
20.02 111 Volta ao Algarve | Overall 2022-02-20
16.03 28 Nokere Koerse | 1.Pro 2022-03-165Show more
18.03 79 Bredene Koksijde Classic | 1.Pro 2022-03-18Show more
20.03 4 GP Criquielion | 1.2 2022-03-2020Show more
01.04 20 Route Adélie de Vitré | 1.1 2022-04-013Show more
04.10 43 Binche-Chimay-Binche | 1.1 2022-10-04Show more
28.07 18 Vuelta a Castilla y León | Points 2022-07-28
17.04 63 Tour of Türkiye | Points 2022-04-17
20.08 3 PostNord Danmark Rundt | Mountain 2022-08-20
17.04 7 Tour of Türkiye | Mountain 2022-04-17
17.04 11 Tour of Türkiye | Sprint 2022-04-17
17.09 46 41 Okolo Slovenska | 4th stage 2022-09-17
16.09 15 43 Okolo Slovenska | 3rd stage 2022-09-16
15.09 61 47 Okolo Slovenska | 2nd stage 2022-09-15
14.09 30 30 Okolo Slovenska | 1st stage 2022-09-14
13.09 31 31 Okolo Slovenska | Prologue 2022-09-13
20.08 25 16 PostNord Danmark Rundt | 5th stage 2022-08-20
19.08 34 19 PostNord Danmark Rundt | 4th stage 2022-08-19
18.08 39 19 PostNord Danmark Rundt | 3rd stage 2022-08-18
17.08 23 22 PostNord Danmark Rundt | 2nd stage 2022-08-17
16.08 39 44 PostNord Danmark Rundt | 1st stage 2022-08-16
07.08 24 22 SAZKA Tour | 4th stage 2022-08-07
06.08 32 25 SAZKA Tour | 3rd stage 2022-08-06
05.08 31 28 SAZKA Tour | 2nd stage 2022-08-05
04.08 22 23 SAZKA Tour | 1st stage 2022-08-04
28.07 10 12 Vuelta a Castilla y León | 2nd stage 2022-07-28
27.07 42 44 Vuelta a Castilla y León | 1st stage 2022-07-27
12.06 82 50 ZLM Tour | 5th stage 2022-06-12
11.06 60 40 ZLM Tour | 4th stage 2022-06-11
10.06 62 41 ZLM Tour | 3rd stage 2022-06-10
09.06 35 45 ZLM Tour | 2nd stage 2022-06-09
08.06 96 96 ZLM Tour | 1st stage 2022-06-08
29.05 56 65 Tour of Norway | 6th stage 2022-05-29
28.05 86 73 Tour of Norway | 5th stage 2022-05-28
27.05 47 60 Tour of Norway | 4th stage 2022-05-27
26.05 63 68 Tour of Norway | 3rd stage 2022-05-26
25.05 58 66 Tour of Norway | 2nd stage 2022-05-25
24.05 59 59 Tour of Norway | 1st stage 2022-05-24
16.04 69 65 Tour of Türkiye | 7th stage 2022-04-16
15.04 57 69 Tour of Türkiye | 6th stage 2022-04-15
14.04 23 77 Tour of Türkiye | 5th stage 2022-04-14
13.04 117 81 Tour of Türkiye | 4th stage 2022-04-13
12.04 40 18 Tour of Türkiye | 3rd stage 2022-04-12
11.04 48 23 Tour of Türkiye | 2nd stage 2022-04-11
10.04 16 16 Tour of Türkiye | 1st stage 2022-04-10
20.02 105 111 Volta ao Algarve | 5th stage 2022-02-20
19.02 89 129 Volta ao Algarve | 4th stage 2022-02-19
18.02 109 135 Volta ao Algarve | 3rd stage 2022-02-18
17.02 142 141 Volta ao Algarve | 2nd stage 2022-02-17
16.02 146 146 Volta ao Algarve | 1st stage 2022-02-16
13.02 65 23 Tour of Antalya | 4th stage 2022-02-13
12.02 26 24 Tour of Antalya | 3rd stage 2022-02-12
11.02 73 45 Tour of Antalya | 2nd stage 2022-02-11
10.02 36 37 Tour of Antalya | 1st stage 2022-02-10